sensor_id;sensor_type;location;lat;lon;timestamp;pressure;altitude;pressure_sealevel;temperature;humidity
21504;BME280;10913;51.992;9.228;2023-05-10T00:00:33;99390.72;;;17.94;92.25
21504;BME280;10913;51.992;9.228;2023-05-10T00:02:59;99390.09;;;17.89;92.90
21504;BME280;10913;51.992;9.228;2023-05-10T00:05:24;99392.91;;;17.86;92.84
21504;BME280;10913;51.992;9.228;2023-05-10T00:07:50;99390.31;;;17.84;93.00
21504;BME280;10913;51.992;9.228;2023-05-10T00:10:15;99395.81;;;17.81;93.43
21504;BME280;10913;51.992;9.228;2023-05-10T00:12:40;99396.75;;;17.80;92.91
21504;BME280;10913;51.992;9.228;2023-05-10T00:15:06;99393.22;;;17.80;94.01
21504;BME280;10913;51.992;9.228;2023-05-10T00:17:32;99393.22;;;17.80;93.85
21504;BME280;10913;51.992;9.228;2023-05-10T00:19:57;99388.06;;;17.77;93.73
21504;BME280;10913;51.992;9.228;2023-05-10T00:22:22;99395.13;;;17.78;93.62
21504;BME280;10913;51.992;9.228;2023-05-10T00:24:48;99394.34;;;17.76;93.60
21504;BME280;10913;51.992;9.228;2023-05-10T00:27:13;99390.81;;;17.75;93.51
21504;BME280;10913;51.992;9.228;2023-05-10T00:29:39;99389.06;;;17.74;93.99
21504;BME280;10913;51.992;9.228;2023-05-10T00:32:04;99385.53;;;17.74;93.13
21504;BME280;10913;51.992;9.228;2023-05-10T00:34:30;99382.84;;;17.74;93.00
21504;BME280;10913;51.992;9.228;2023-05-10T00:36:55;99381.19;;;17.71;94.13
21504;BME280;10913;51.992;9.228;2023-05-10T00:39:21;99376.00;;;17.68;94.12
21504;BME280;10913;51.992;9.228;2023-05-10T00:41:46;99371.69;;;17.66;94.39
21504;BME280;10913;51.992;9.228;2023-05-10T00:44:12;99371.81;;;17.63;94.16
21504;BME280;10913;51.992;9.228;2023-05-10T00:46:37;99376.44;;;17.59;94.54
21504;BME280;10913;51.992;9.228;2023-05-10T00:49:03;99382.03;;;17.54;95.08
21504;BME280;10913;51.992;9.228;2023-05-10T00:51:29;99385.72;;;17.52;94.99
21504;BME280;10913;51.992;9.228;2023-05-10T00:53:56;99379.56;;;17.50;94.90
21504;BME280;10913;51.992;9.228;2023-05-10T00:56:21;99375.25;;;17.47;95.20
21504;BME280;10913;51.992;9.228;2023-05-10T00:58:48;99377.91;;;17.47;95.34
21504;BME280;10913;51.992;9.228;2023-05-10T01:01:14;99378.84;;;17.46;95.17
21504;BME280;10913;51.992;9.228;2023-05-10T01:03:40;99378.00;;;17.46;94.86
21504;BME280;10913;51.992;9.228;2023-05-10T01:06:05;99370.91;;;17.45;94.99
21504;BME280;10913;51.992;9.228;2023-05-10T01:08:31;99377.19;;;17.44;95.23
21504;BME280;10913;51.992;9.228;2023-05-10T01:10:57;99372.72;;;17.44;94.60
21504;BME280;10913;51.992;9.228;2023-05-10T01:13:39;99370.06;;;17.44;95.20
21504;BME280;10913;51.992;9.228;2023-05-10T01:16:06;99368.31;;;17.43;95.34
21504;BME280;10913;51.992;9.228;2023-05-10T01:18:38;99374.66;;;17.41;96.26
21504;BME280;10913;51.992;9.228;2023-05-10T01:24:12;99378.22;;;17.41;96.26
21504;BME280;10913;51.992;9.228;2023-05-10T01:30:05;99372.06;;;17.39;96.89
21504;BME280;10913;51.992;9.228;2023-05-10T01:32:45;99369.50;;;17.38;97.28
21504;BME280;10913;51.992;9.228;2023-05-10T01:35:40;99371.38;;;17.36;98.00
21504;BME280;10913;51.992;9.228;2023-05-10T01:43:25;99356.81;;;17.24;99.86
21504;BME280;10913;51.992;9.228;2023-05-10T01:46:16;99350.63;;;17.23;99.67
21504;BME280;10913;51.992;9.228;2023-05-10T01:48:47;99350.63;;;17.23;99.29
21504;BME280;10913;51.992;9.228;2023-05-10T01:51:16;99356.81;;;17.24;99.30
21504;BME280;10913;51.992;9.228;2023-05-10T01:53:44;99350.63;;;17.23;99.56
21504;BME280;10913;51.992;9.228;2023-05-10T01:56:12;99344.56;;;17.20;99.95
21504;BME280;10913;51.992;9.228;2023-05-10T01:58:40;99350.06;;;17.17;100.00
21504;BME280;10913;51.992;9.228;2023-05-10T02:01:08;99350.38;;;17.11;100.00
21504;BME280;10913;51.992;9.228;2023-05-10T02:03:36;99354.41;;;17.01;100.00
21504;BME280;10913;51.992;9.228;2023-05-10T02:06:03;99353.72;;;16.97;100.00
21504;BME280;10913;51.992;9.228;2023-05-10T02:08:30;99347.66;;;16.94;100.00
21504;BME280;10913;51.992;9.228;2023-05-10T02:10:57;99353.84;;;16.94;100.00
21504;BME280;10913;51.992;9.228;2023-05-10T02:13:24;99355.59;;;16.95;100.00
21504;BME280;10913;51.992;9.228;2023-05-10T02:15:51;99356.44;;;16.96;100.00
21504;BME280;10913;51.992;9.228;2023-05-10T02:18:18;99353.53;;;17.00;100.00
21504;BME280;10913;51.992;9.228;2023-05-10T02:20:45;99356.91;;;17.04;100.00
21504;BME280;10913;51.992;9.228;2023-05-10T02:23:12;99360.31;;;17.07;100.00
21504;BME280;10913;51.992;9.228;2023-05-10T02:25:38;99363.06;;;17.06;100.00
21504;BME280;10913;51.992;9.228;2023-05-10T02:28:06;99360.66;;;17.00;100.00
21504;BME280;10913;51.992;9.228;2023-05-10T02:30:33;99358.31;;;16.94;100.00
21504;BME280;10913;51.992;9.228;2023-05-10T02:33:00;99365.66;;;16.88;100.00
21504;BME280;10913;51.992;9.228;2023-05-10T02:35:27;99361.34;;;16.86;100.00
21504;BME280;10913;51.992;9.228;2023-05-10T02:37:53;99366.59;;;16.87;100.00
21504;BME280;10913;51.992;9.228;2023-05-10T02:40:21;99367.53;;;16.86;100.00
21504;BME280;10913;51.992;9.228;2023-05-10T02:42:48;99359.59;;;16.85;100.00
21504;BME280;10913;51.992;9.228;2023-05-10T02:45:20;99362.19;;;16.86;100.00
21504;BME280;10913;51.992;9.228;2023-05-10T02:47:45;99355.00;;;16.88;100.00
21504;BME280;10913;51.992;9.228;2023-05-10T02:50:11;99360.19;;;16.92;100.00
21504;BME280;10913;51.992;9.228;2023-05-10T02:52:40;99360.06;;;16.95;100.00
21504;BME280;10913;51.992;9.228;2023-05-10T02:55:09;99366.31;;;16.94;100.00
21504;BME280;10913;51.992;9.228;2023-05-10T02:57:40;99356.72;;;16.90;100.00
21504;BME280;10913;51.992;9.228;2023-05-10T03:00:06;99358.59;;;16.87;100.00
21504;BME280;10913;51.992;9.228;2023-05-10T03:02:32;99363.53;;;16.78;100.00
21504;BME280;10913;51.992;9.228;2023-05-10T03:04:57;99356.13;;;16.64;100.00
21504;BME280;10913;51.992;9.228;2023-05-10T03:07:23;99355.81;;;16.51;100.00
21504;BME280;10913;51.992;9.228;2023-05-10T03:09:49;99358.69;;;16.47;100.00
21504;BME280;10913;51.992;9.228;2023-05-10T03:14:57;99356.81;;;16.49;100.00
21504;BME280;10913;51.992;9.228;2023-05-10T03:20:10;99354.97;;;16.51;100.00
21504;BME280;10913;51.992;9.228;2023-05-10T03:22:53;99357.50;;;16.54;100.00
21504;BME280;10913;51.992;9.228;2023-05-10T03:25:21;99350.28;;;16.56;100.00
21504;BME280;10913;51.992;9.228;2023-05-10T03:27:48;99358.13;;;16.59;100.00
21504;BME280;10913;51.992;9.228;2023-05-10T03:30:15;99351.84;;;16.60;100.00
21504;BME280;10913;51.992;9.228;2023-05-10T03:32:41;99356.41;;;16.58;100.00
21504;BME280;10913;51.992;9.228;2023-05-10T03:35:10;99359.22;;;16.55;100.00
21504;BME280;10913;51.992;9.228;2023-05-10T03:37:36;99353.97;;;16.53;100.00
21504;BME280;10913;51.992;9.228;2023-05-10T03:40:02;99361.16;;;16.51;100.00
21504;BME280;10913;51.992;9.228;2023-05-10T03:42:28;99364.69;;;16.52;100.00
21504;BME280;10913;51.992;9.228;2023-05-10T03:44:53;99363.81;;;16.51;100.00
21504;BME280;10913;51.992;9.228;2023-05-10T03:47:19;99370.97;;;16.51;100.00
21504;BME280;10913;51.992;9.228;2023-05-10T03:49:44;99371.97;;;16.48;100.00
21504;BME280;10913;51.992;9.228;2023-05-10T03:52:10;99369.34;;;16.47;100.00
21504;BME280;10913;51.992;9.228;2023-05-10T03:54:36;99365.91;;;16.45;100.00
21504;BME280;10913;51.992;9.228;2023-05-10T03:57:01;99369.78;;;16.38;100.00
21504;BME280;10913;51.992;9.228;2023-05-10T03:59:28;99379.72;;;16.34;100.00
21504;BME280;10913;51.992;9.228;2023-05-10T04:01:53;99377.53;;;16.24;100.00
21504;BME280;10913;51.992;9.228;2023-05-10T04:04:19;99382.97;;;16.20;100.00
21504;BME280;10913;51.992;9.228;2023-05-10T04:06:46;99384.00;;;16.18;100.00
21504;BME280;10913;51.992;9.228;2023-05-10T04:09:11;99391.28;;;16.14;100.00
21504;BME280;10913;51.992;9.228;2023-05-10T04:11:37;99391.28;;;16.14;100.00
21504;BME280;10913;51.992;9.228;2023-05-10T04:14:02;99392.19;;;16.13;100.00
21504;BME280;10913;51.992;9.228;2023-05-10T04:16:27;99401.06;;;16.14;100.00
21504;BME280;10913;51.992;9.228;2023-05-10T04:18:53;99401.94;;;16.14;100.00
21504;BME280;10913;51.992;9.228;2023-05-10T04:21:18;99401.00;;;16.15;100.00
21504;BME280;10913;51.992;9.228;2023-05-10T04:23:43;99414.25;;;16.17;100.00
21504;BME280;10913;51.992;9.228;2023-05-10T04:26:09;99412.31;;;16.20;100.00
21504;BME280;10913;51.992;9.228;2023-05-10T04:28:34;99403.38;;;16.22;100.00
21504;BME280;10913;51.992;9.228;2023-05-10T04:31:07;99406.91;;;16.22;100.00
21504;BME280;10913;51.992;9.228;2023-05-10T04:33:33;99410.56;;;16.19;100.00
21504;BME280;10913;51.992;9.228;2023-05-10T04:35:59;99415.91;;;16.19;100.00
21504;BME280;10913;51.992;9.228;2023-05-10T04:38:26;99410.56;;;16.19;100.00
21504;BME280;10913;51.992;9.228;2023-05-10T04:40:52;99419.53;;;16.18;100.00
21504;BME280;10913;51.992;9.228;2023-05-10T04:43:17;99415.13;;;16.17;100.00
21504;BME280;10913;51.992;9.228;2023-05-10T04:45:43;99415.13;;;16.17;100.00
21504;BME280;10913;51.992;9.228;2023-05-10T04:48:08;99425.78;;;16.17;100.00
21504;BME280;10913;51.992;9.228;2023-05-10T04:50:33;99421.31;;;16.18;100.00
21504;BME280;10913;51.992;9.228;2023-05-10T04:52:59;99423.88;;;16.19;100.00
21504;BME280;10913;51.992;9.228;2023-05-10T04:55:24;99422.03;;;16.22;100.00
21504;BME280;10913;51.992;9.228;2023-05-10T04:57:50;99423.81;;;16.21;100.00
21504;BME280;10913;51.992;9.228;2023-05-10T05:00:16;99428.28;;;16.20;100.00
21504;BME280;10913;51.992;9.228;2023-05-10T05:02:45;99435.34;;;16.22;100.00
21504;BME280;10913;51.992;9.228;2023-05-10T05:05:11;99430.88;;;16.22;100.00
21504;BME280;10913;51.992;9.228;2023-05-10T05:07:36;99442.47;;;16.21;100.00
21504;BME280;10913;51.992;9.228;2023-05-10T05:10:04;99441.69;;;16.19;100.00
21504;BME280;10913;51.992;9.228;2023-05-10T05:12:30;99446.06;;;16.20;100.00
21504;BME280;10913;51.992;9.228;2023-05-10T05:14:55;99445.22;;;16.19;100.00
21504;BME280;10913;51.992;9.228;2023-05-10T05:17:21;99446.16;;;16.18;100.00
21504;BME280;10913;51.992;9.228;2023-05-10T05:19:46;99452.44;;;16.17;100.00
21504;BME280;10913;51.992;9.228;2023-05-10T05:22:11;99452.44;;;16.17;100.00
21504;BME280;10913;51.992;9.228;2023-05-10T05:24:37;99449.78;;;16.17;100.00
21504;BME280;10913;51.992;9.228;2023-05-10T05:27:03;99448.09;;;16.15;100.00
21504;BME280;10913;51.992;9.228;2023-05-10T05:29:28;99449.84;;;16.16;100.00
21504;BME280;10913;51.992;9.228;2023-05-10T05:31:54;99454.28;;;16.15;100.00
21504;BME280;10913;51.992;9.228;2023-05-10T05:34:19;99454.28;;;16.15;100.00
21504;BME280;10913;51.992;9.228;2023-05-10T05:36:45;99462.28;;;16.15;100.00
21504;BME280;10913;51.992;9.228;2023-05-10T05:39:11;99460.56;;;16.14;100.00
21504;BME280;10913;51.992;9.228;2023-05-10T05:41:36;99464.94;;;16.15;100.00
21504;BME280;10913;51.992;9.228;2023-05-10T05:44:01;99469.59;;;16.10;100.00
21504;BME280;10913;51.992;9.228;2023-05-10T05:46:27;99474.25;;;16.05;100.00
21504;BME280;10913;51.992;9.228;2023-05-10T05:48:52;99469.00;;;16.04;100.00
21504;BME280;10913;51.992;9.228;2023-05-10T05:51:17;99479.59;;;16.05;100.00
21504;BME280;10913;51.992;9.228;2023-05-10T05:53:43;99482.25;;;16.05;100.00
21504;BME280;10913;51.992;9.228;2023-05-10T05:56:08;99482.25;;;16.05;100.00
21504;BME280;10913;51.992;9.228;2023-05-10T05:58:34;99485.97;;;16.01;100.00
21504;BME280;10913;51.992;9.228;2023-05-10T06:01:00;99499.44;;;15.98;100.00
21504;BME280;10913;51.992;9.228;2023-05-10T06:03:25;99497.72;;;15.97;100.00
21504;BME280;10913;51.992;9.228;2023-05-10T06:05:50;99495.03;;;15.97;100.00
21504;BME280;10913;51.992;9.228;2023-05-10T06:08:16;99509.94;;;16.01;100.00
21504;BME280;10913;51.992;9.228;2023-05-10T06:10:41;99503.63;;;16.04;100.00
21504;BME280;10913;51.992;9.228;2023-05-10T06:13:07;99508.09;;;16.03;100.00
21504;BME280;10913;51.992;9.228;2023-05-10T06:15:32;99507.34;;;16.00;100.00
21504;BME280;10913;51.992;9.228;2023-05-10T06:17:57;99516.41;;;15.96;100.00
21504;BME280;10913;51.992;9.228;2023-05-10T06:20:23;99520.94;;;15.94;100.00
21504;BME280;10913;51.992;9.228;2023-05-10T06:22:48;99517.41;;;15.93;100.00
21504;BME280;10913;51.992;9.228;2023-05-10T06:25:13;99516.47;;;15.94;100.00
21504;BME280;10913;51.992;9.228;2023-05-10T06:27:40;99526.19;;;15.95;100.00
21504;BME280;10913;51.992;9.228;2023-05-10T06:30:05;99531.41;;;15.98;100.00
21504;BME280;10913;51.992;9.228;2023-05-10T06:32:31;99527.78;;;15.99;100.00
21504;BME280;10913;51.992;9.228;2023-05-10T06:34:57;99538.44;;;15.99;100.00
21504;BME280;10913;51.992;9.228;2023-05-10T06:37:22;99541.91;;;16.01;100.00
21504;BME280;10913;51.992;9.228;2023-05-10T06:39:47;99542.72;;;16.03;100.00
21504;BME280;10913;51.992;9.228;2023-05-10T06:42:13;99555.00;;;16.07;100.00
21504;BME280;10913;51.992;9.228;2023-05-10T06:44:39;99550.47;;;16.09;100.00
21504;BME280;10913;51.992;9.228;2023-05-10T06:47:04;99557.53;;;16.10;100.00
21504;BME280;10913;51.992;9.228;2023-05-10T06:49:29;99554.88;;;16.10;100.00
21504;BME280;10913;51.992;9.228;2023-05-10T06:51:55;99558.22;;;16.15;100.00
21504;BME280;10913;51.992;9.228;2023-05-10T06:54:21;99554.69;;;16.15;100.00
21504;BME280;10913;51.992;9.228;2023-05-10T06:56:46;99560.88;;;16.15;100.00
21504;BME280;10913;51.992;9.228;2023-05-10T06:59:12;99561.94;;;16.11;100.00
21504;BME280;10913;51.992;9.228;2023-05-10T07:01:39;99563.84;;;16.08;100.00
21504;BME280;10913;51.992;9.228;2023-05-10T07:04:04;99564.84;;;16.05;100.00
21504;BME280;10913;51.992;9.228;2023-05-10T07:06:30;99569.25;;;16.06;100.00
21504;BME280;10913;51.992;9.228;2023-05-10T07:08:55;99567.44;;;16.07;100.00
21504;BME280;10913;51.992;9.228;2023-05-10T07:11:20;99573.81;;;16.03;100.00
21504;BME280;10913;51.992;9.228;2023-05-10T07:13:46;99579.28;;;16.00;100.00
21504;BME280;10913;51.992;9.228;2023-05-10T07:16:11;99581.34;;;15.93;100.00
21504;BME280;10913;51.992;9.228;2023-05-10T07:18:37;99586.03;;;15.87;100.00
21504;BME280;10913;51.992;9.228;2023-05-10T07:21:02;99588.88;;;15.82;100.00
21504;BME280;10913;51.992;9.228;2023-05-10T07:23:28;99599.78;;;15.76;100.00
21504;BME280;10913;51.992;9.228;2023-05-10T07:25:54;99608.69;;;15.75;100.00
21504;BME280;10913;51.992;9.228;2023-05-10T07:28:19;99606.09;;;15.73;100.00
21504;BME280;10913;51.992;9.228;2023-05-10T07:30:45;99604.38;;;15.72;100.00
21504;BME280;10913;51.992;9.228;2023-05-10T07:33:12;99607.09;;;15.71;100.00
21504;BME280;10913;51.992;9.228;2023-05-10T07:35:39;99610.78;;;15.67;100.00
21504;BME280;10913;51.992;9.228;2023-05-10T07:38:05;99616.88;;;15.70;100.00
21504;BME280;10913;51.992;9.228;2023-05-10T07:40:30;99616.75;;;15.73;100.00
21504;BME280;10913;51.992;9.228;2023-05-10T07:42:56;99614.78;;;15.78;100.00
21504;BME280;10913;51.992;9.228;2023-05-10T07:45:22;99623.50;;;15.82;100.00
21504;BME280;10913;51.992;9.228;2023-05-10T07:47:47;99618.16;;;15.82;100.00
21504;BME280;10913;51.992;9.228;2023-05-10T07:50:12;99621.75;;;15.81;100.00
21504;BME280;10913;51.992;9.228;2023-05-10T07:52:38;99621.75;;;15.81;100.00
21504;BME280;10913;51.992;9.228;2023-05-10T07:55:03;99627.91;;;15.83;100.00
21504;BME280;10913;51.992;9.228;2023-05-10T07:57:29;99624.09;;;15.90;100.00
21504;BME280;10913;51.992;9.228;2023-05-10T07:59:55;99630.97;;;15.96;100.00
21504;BME280;10913;51.992;9.228;2023-05-10T08:02:21;99631.53;;;16.04;100.00
21504;BME280;10913;51.992;9.228;2023-05-10T08:04:46;99646.41;;;16.09;100.00
21504;BME280;10913;51.992;9.228;2023-05-10T08:07:11;99646.16;;;16.15;100.00
21504;BME280;10913;51.992;9.228;2023-05-10T08:09:37;99653.97;;;16.20;99.14
21504;BME280;10913;51.992;9.228;2023-05-10T08:12:02;99640.56;;;16.22;98.84
21504;BME280;10913;51.992;9.228;2023-05-10T08:14:29;99650.19;;;16.26;98.72
21504;BME280;10913;51.992;9.228;2023-05-10T08:16:55;99647.28;;;16.32;99.60
21504;BME280;10913;51.992;9.228;2023-05-10T08:19:20;99661.53;;;16.31;100.00
21504;BME280;10913;51.992;9.228;2023-05-10T08:21:46;99662.41;;;16.31;99.05
21504;BME280;10913;51.992;9.228;2023-05-10T08:24:12;99665.81;;;16.35;98.11
21504;BME280;10913;51.992;9.228;2023-05-10T08:26:38;99664.69;;;16.40;98.01
21504;BME280;10913;51.992;9.228;2023-05-10T08:29:03;99663.75;;;16.41;97.78
21504;BME280;10913;51.992;9.228;2023-05-10T08:31:28;99657.44;;;16.44;97.18
21504;BME280;10913;51.992;9.228;2023-05-10T08:33:54;99662.53;;;16.50;97.88
21504;BME280;10913;51.992;9.228;2023-05-10T08:36:19;99659.56;;;16.58;98.40
21504;BME280;10913;51.992;9.228;2023-05-10T08:38:49;99662.66;;;16.69;97.29
21504;BME280;10913;51.992;9.228;2023-05-10T08:41:14;99666.88;;;16.74;98.16
21504;BME280;10913;51.992;9.228;2023-05-10T08:43:40;99663.94;;;16.80;96.70
21504;BME280;10913;51.992;9.228;2023-05-10T08:46:15;99668.78;;;16.93;96.08
21504;BME280;10913;51.992;9.228;2023-05-10T08:48:42;99672.88;;;17.00;96.38
21504;BME280;10913;51.992;9.228;2023-05-10T08:51:09;99669.28;;;17.01;95.89
21504;BME280;10913;51.992;9.228;2023-05-10T08:53:38;99677.44;;;16.98;96.33
21504;BME280;10913;51.992;9.228;2023-05-10T08:56:04;99683.84;;;16.94;96.01
21504;BME280;10913;51.992;9.228;2023-05-10T08:58:29;99687.44;;;16.93;96.26
21504;BME280;10913;51.992;9.228;2023-05-10T09:00:56;99684.84;;;16.91;95.99
21504;BME280;10913;51.992;9.228;2023-05-10T09:03:22;99692.78;;;16.93;95.34
21504;BME280;10913;51.992;9.228;2023-05-10T09:05:50;99693.66;;;16.93;95.48
21504;BME280;10913;51.992;9.228;2023-05-10T09:08:16;99694.72;;;16.89;95.91
21504;BME280;10913;51.992;9.228;2023-05-10T09:10:45;99693.03;;;16.86;95.08
21504;BME280;10913;51.992;9.228;2023-05-10T09:13:14;99693.16;;;16.83;94.66
21504;BME280;10913;51.992;9.228;2023-05-10T09:15:40;99700.09;;;16.87;95.03
21504;BME280;10913;51.992;9.228;2023-05-10T09:18:05;99707.75;;;16.97;95.26
21504;BME280;10913;51.992;9.228;2023-05-10T09:20:31;99703.59;;;17.10;95.60
21504;BME280;10913;51.992;9.228;2023-05-10T09:22:56;99705.59;;;17.25;95.01
21504;BME280;10913;51.992;9.228;2023-05-10T09:25:22;99709.50;;;17.38;94.07
21504;BME280;10913;51.992;9.228;2023-05-10T09:27:48;99712.59;;;17.48;93.30
21504;BME280;10913;51.992;9.228;2023-05-10T09:30:33;99708.50;;;17.60;93.57
21504;BME280;10913;51.992;9.228;2023-05-10T09:32:59;99707.28;;;17.68;94.80
21504;BME280;10913;51.992;9.228;2023-05-10T09:35:26;99711.97;;;17.62;93.22
21504;BME280;10913;51.992;9.228;2023-05-10T09:37:55;99713.63;;;17.66;93.00
21504;BME280;10913;51.992;9.228;2023-05-10T09:40:23;99711.69;;;17.69;93.42
21504;BME280;10913;51.992;9.228;2023-05-10T09:45:24;99727.88;;;17.85;93.06
21504;BME280;10913;51.992;9.228;2023-05-10T09:47:50;99719.16;;;18.00;93.38
21504;BME280;10913;51.992;9.228;2023-05-10T09:50:15;99715.13;;;18.10;93.25
21504;BME280;10913;51.992;9.228;2023-05-10T09:52:58;99714.47;;;18.24;90.40
21504;BME280;10913;51.992;9.228;2023-05-10T09:57:59;99704.63;;;18.62;91.04
21504;BME280;10913;51.992;9.228;2023-05-10T10:00:25;99710.72;;;18.83;90.30
21504;BME280;10913;51.992;9.228;2023-05-10T10:02:56;99708.13;;;18.99;87.88
21504;BME280;10913;51.992;9.228;2023-05-10T10:05:31;99712.72;;;19.14;88.90
21504;BME280;10913;51.992;9.228;2023-05-10T10:07:57;99713.91;;;19.25;88.12
21504;BME280;10913;51.992;9.228;2023-05-10T10:10:24;99717.13;;;19.32;86.33
21504;BME280;10913;51.992;9.228;2023-05-10T10:12:49;99707.06;;;19.37;87.02
21504;BME280;10913;51.992;9.228;2023-05-10T10:15:15;99717.84;;;19.36;87.03
21504;BME280;10913;51.992;9.228;2023-05-10T10:17:43;99719.19;;;19.27;87.76
21504;BME280;10913;51.992;9.228;2023-05-10T10:20:08;99715.25;;;19.17;87.46
21504;BME280;10913;51.992;9.228;2023-05-10T10:22:34;99720.84;;;19.12;87.11
21504;BME280;10913;51.992;9.228;2023-05-10T10:25:01;99720.13;;;19.09;87.61
21504;BME280;10913;51.992;9.228;2023-05-10T10:30:43;99732.38;;;18.78;86.79
21504;BME280;10913;51.992;9.228;2023-05-10T10:33:26;99728.13;;;18.55;88.71
21504;BME280;10913;51.992;9.228;2023-05-10T10:35:54;99733.69;;;18.13;90.56
21504;BME280;10913;51.992;9.228;2023-05-10T10:38:20;99739.50;;;17.84;91.04
21504;BME280;10913;51.992;9.228;2023-05-10T10:40:46;99744.97;;;17.61;93.27
21504;BME280;10913;51.992;9.228;2023-05-10T10:43:25;99741.25;;;17.44;94.45
21504;BME280;10913;51.992;9.228;2023-05-10T10:46:15;99741.59;;;17.37;95.73
21504;BME280;10913;51.992;9.228;2023-05-10T10:48:41;99741.25;;;17.44;95.95
21504;BME280;10913;51.992;9.228;2023-05-10T10:51:13;99739.19;;;17.51;96.51
21504;BME280;10913;51.992;9.228;2023-05-10T10:53:40;99742.94;;;17.67;95.31
21504;BME280;10913;51.992;9.228;2023-05-10T10:56:09;99745.03;;;17.79;95.12
21504;BME280;10913;51.992;9.228;2023-05-10T10:58:38;99740.91;;;17.93;97.27
21504;BME280;10913;51.992;9.228;2023-05-10T11:01:11;99734.25;;;18.01;94.98
21504;BME280;10913;51.992;9.228;2023-05-10T11:03:37;99738.31;;;18.10;94.60
21504;BME280;10913;51.992;9.228;2023-05-10T11:06:03;99743.59;;;18.11;94.89
21504;BME280;10913;51.992;9.228;2023-05-10T11:08:30;99743.22;;;18.19;93.94
21504;BME280;10913;51.992;9.228;2023-05-10T11:13:43;99740.41;;;18.41;91.79
21504;BME280;10913;51.992;9.228;2023-05-10T11:16:29;99743.97;;;18.60;92.69
21504;BME280;10913;51.992;9.228;2023-05-10T11:19:13;99739.44;;;18.79;93.47
21504;BME280;10913;51.992;9.228;2023-05-10T11:24:15;99729.44;;;19.36;91.99
21504;BME280;10913;51.992;9.228;2023-05-10T11:26:40;99729.41;;;19.71;91.95
21504;BME280;10913;51.992;9.228;2023-05-10T11:29:06;99734.06;;;20.00;88.63
21504;BME280;10913;51.992;9.228;2023-05-10T11:31:31;99723.72;;;20.25;86.37
21504;BME280;10913;51.992;9.228;2023-05-10T11:33:58;99737.19;;;20.41;85.55
21504;BME280;10913;51.992;9.228;2023-05-10T11:36:26;99734.25;;;20.46;86.09
21504;BME280;10913;51.992;9.228;2023-05-10T11:38:53;99732.19;;;20.51;86.46
21504;BME280;10913;51.992;9.228;2023-05-10T11:41:19;99727.34;;;20.57;84.22
21504;BME280;10913;51.992;9.228;2023-05-10T11:43:50;99734.41;;;20.58;85.34
21504;BME280;10913;51.992;9.228;2023-05-10T11:46:19;99729.25;;;20.55;85.17
21504;BME280;10913;51.992;9.228;2023-05-10T11:48:47;99724.03;;;20.52;84.41
21504;BME280;10913;51.992;9.228;2023-05-10T11:51:13;99725.78;;;20.53;83.18
21504;BME280;10913;51.992;9.228;2023-05-10T11:53:39;99729.41;;;20.52;82.87
21504;BME280;10913;51.992;9.228;2023-05-10T11:56:06;99717.97;;;20.49;81.42
21504;BME280;10913;51.992;9.228;2023-05-10T11:58:32;99722.38;;;20.50;82.36
21504;BME280;10913;51.992;9.228;2023-05-10T12:01:02;99724.91;;;20.53;82.49
21504;BME280;10913;51.992;9.228;2023-05-10T12:03:29;99722.47;;;20.48;82.83
21504;BME280;10913;51.992;9.228;2023-05-10T12:05:58;99726.28;;;20.44;81.56
21504;BME280;10913;51.992;9.228;2023-05-10T12:08:25;99727.84;;;20.48;82.69
21504;BME280;10913;51.992;9.228;2023-05-10T12:11:07;99731.63;;;20.60;82.85
21504;BME280;10913;51.992;9.228;2023-05-10T12:13:37;99727.66;;;20.67;81.96
21504;BME280;10913;51.992;9.228;2023-05-10T12:16:33;99725.59;;;20.72;81.62
21504;BME280;10913;51.992;9.228;2023-05-10T12:18:59;99728.00;;;20.77;82.42
21504;BME280;10913;51.992;9.228;2023-05-10T12:21:26;99732.69;;;20.73;80.09
21504;BME280;10913;51.992;9.228;2023-05-10T12:23:54;99737.69;;;20.79;81.26
21504;BME280;10913;51.992;9.228;2023-05-10T12:26:27;99738.06;;;20.73;80.07
21504;BME280;10913;51.992;9.228;2023-05-10T12:28:53;99742.31;;;20.77;81.23
21504;BME280;10913;51.992;9.228;2023-05-10T12:31:19;99733.69;;;20.86;80.36
21504;BME280;10913;51.992;9.228;2023-05-10T12:33:45;99735.34;;;20.89;79.22
21504;BME280;10913;51.992;9.228;2023-05-10T12:36:13;99737.88;;;20.76;77.09
21504;BME280;10913;51.992;9.228;2023-05-10T12:41:13;99743.06;;;20.48;80.29
21504;BME280;10913;51.992;9.228;2023-05-10T12:43:39;99749.66;;;20.42;80.63
21504;BME280;10913;51.992;9.228;2023-05-10T12:46:11;99748.94;;;20.39;81.02
21504;BME280;10913;51.992;9.228;2023-05-10T12:48:39;99742.75;;;20.38;80.95
21504;BME280;10913;51.992;9.228;2023-05-10T12:51:05;99751.53;;;20.40;80.61
21504;BME280;10913;51.992;9.228;2023-05-10T12:53:34;99755.88;;;20.43;80.97
21504;BME280;10913;51.992;9.228;2023-05-10T12:56:00;99754.94;;;20.44;81.13
21504;BME280;10913;51.992;9.228;2023-05-10T12:58:25;99755.00;;;20.42;82.09
21504;BME280;10913;51.992;9.228;2023-05-10T13:00:50;99748.94;;;20.39;81.88
21504;BME280;10913;51.992;9.228;2023-05-10T13:03:17;99761.75;;;20.34;82.00
21504;BME280;10913;51.992;9.228;2023-05-10T13:05:42;99753.78;;;20.32;80.77
21504;BME280;10913;51.992;9.228;2023-05-10T13:08:07;99760.16;;;20.29;80.11
21504;BME280;10913;51.992;9.228;2023-05-10T13:10:33;99748.75;;;20.26;80.24
21504;BME280;10913;51.992;9.228;2023-05-10T13:12:58;99752.28;;;20.26;80.92
21504;BME280;10913;51.992;9.228;2023-05-10T13:15:24;99756.78;;;20.26;81.62
21504;BME280;10913;51.992;9.228;2023-05-10T13:17:50;99763.53;;;20.17;80.71
21504;BME280;10913;51.992;9.228;2023-05-10T13:20:16;99773.81;;;20.09;82.41
21504;BME280;10913;51.992;9.228;2023-05-10T13:22:43;99768.66;;;19.89;78.80
21504;BME280;10913;51.992;9.228;2023-05-10T13:25:08;99771.03;;;19.78;79.80
21504;BME280;10913;51.992;9.228;2023-05-10T13:27:34;99772.00;;;19.77;81.27